sensor_id;sensor_type;location;lat;lon;timestamp;temperature;humidity
70271;SHT31;57680;54.292;18.598;2023-11-19T00:00:19;0.99;96.68
70271;SHT31;57680;54.292;18.598;2023-11-19T00:02:45;0.96;96.54
70271;SHT31;57680;54.292;18.598;2023-11-19T00:05:10;0.94;96.56
70271;SHT31;57680;54.292;18.598;2023-11-19T00:07:36;0.93;96.39
70271;SHT31;57680;54.292;18.598;2023-11-19T00:10:01;0.93;96.41
70271;SHT31;57680;54.292;18.598;2023-11-19T00:12:27;0.90;96.53
70271;SHT31;57680;54.292;18.598;2023-11-19T00:14:52;0.90;96.51
70271;SHT31;57680;54.292;18.598;2023-11-19T00:17:17;0.87;96.48
70271;SHT31;57680;54.292;18.598;2023-11-19T00:19:43;0.84;96.57
70271;SHT31;57680;54.292;18.598;2023-11-19T00:22:08;0.87;96.77
70271;SHT31;57680;54.292;18.598;2023-11-19T00:24:33;0.83;96.58
70271;SHT31;57680;54.292;18.598;2023-11-19T00:26:58;0.81;96.56
70271;SHT31;57680;54.292;18.598;2023-11-19T00:29:24;0.80;96.59
70271;SHT31;57680;54.292;18.598;2023-11-19T00:31:49;0.77;96.59
70271;SHT31;57680;54.292;18.598;2023-11-19T00:34:14;0.69;96.57
70271;SHT31;57680;54.292;18.598;2023-11-19T00:36:40;0.73;96.81
70271;SHT31;57680;54.292;18.598;2023-11-19T00:39:05;0.72;96.85
70271;SHT31;57680;54.292;18.598;2023-11-19T00:41:30;0.73;96.54
70271;SHT31;57680;54.292;18.598;2023-11-19T00:43:56;0.75;96.51
70271;SHT31;57680;54.292;18.598;2023-11-19T00:46:21;0.75;96.53
70271;SHT31;57680;54.292;18.598;2023-11-19T00:48:46;0.76;96.64
70271;SHT31;57680;54.292;18.598;2023-11-19T00:51:12;0.76;96.30
70271;SHT31;57680;54.292;18.598;2023-11-19T00:53:37;0.76;96.51
70271;SHT31;57680;54.292;18.598;2023-11-19T00:56:02;0.76;96.57
70271;SHT31;57680;54.292;18.598;2023-11-19T00:58:28;0.76;96.55
70271;SHT31;57680;54.292;18.598;2023-11-19T01:00:53;0.75;96.35
70271;SHT31;57680;54.292;18.598;2023-11-19T01:03:18;0.75;96.11
70271;SHT31;57680;54.292;18.598;2023-11-19T01:05:44;0.72;96.48
70271;SHT31;57680;54.292;18.598;2023-11-19T01:08:09;0.76;96.70
70271;SHT31;57680;54.292;18.598;2023-11-19T01:10:37;0.76;96.85
70271;SHT31;57680;54.292;18.598;2023-11-19T01:13:02;0.77;96.92
70271;SHT31;57680;54.292;18.598;2023-11-19T01:15:27;0.83;97.25
70271;SHT31;57680;54.292;18.598;2023-11-19T01:17:53;0.83;96.90
70271;SHT31;57680;54.292;18.598;2023-11-19T01:20:18;0.81;96.56
70271;SHT31;57680;54.292;18.598;2023-11-19T01:22:43;0.79;96.46
70271;SHT31;57680;54.292;18.598;2023-11-19T01:25:09;0.75;96.25
70271;SHT31;57680;54.292;18.598;2023-11-19T01:27:34;0.75;96.46
70271;SHT31;57680;54.292;18.598;2023-11-19T01:29:59;0.70;96.52
70271;SHT31;57680;54.292;18.598;2023-11-19T01:32:25;0.69;96.64
70271;SHT31;57680;54.292;18.598;2023-11-19T01:34:50;0.73;96.68
70271;SHT31;57680;54.292;18.598;2023-11-19T01:37:15;0.70;96.58
70271;SHT31;57680;54.292;18.598;2023-11-19T01:39:43;0.70;96.50
70271;SHT31;57680;54.292;18.598;2023-11-19T01:42:09;0.68;96.41
70271;SHT31;57680;54.292;18.598;2023-11-19T01:44:34;0.69;96.34
70271;SHT31;57680;54.292;18.598;2023-11-19T01:47:00;0.69;96.24
70271;SHT31;57680;54.292;18.598;2023-11-19T01:49:25;0.66;96.00
70271;SHT31;57680;54.292;18.598;2023-11-19T01:51:51;0.69;95.91
70271;SHT31;57680;54.292;18.598;2023-11-19T01:54:16;0.68;95.64
70271;SHT31;57680;54.292;18.598;2023-11-19T01:56:41;0.68;95.38
70271;SHT31;57680;54.292;18.598;2023-11-19T01:59:07;0.69;95.19
70271;SHT31;57680;54.292;18.598;2023-11-19T02:01:34;0.70;95.04
70271;SHT31;57680;54.292;18.598;2023-11-19T02:04:01;0.70;95.05
70271;SHT31;57680;54.292;18.598;2023-11-19T02:06:27;0.66;94.97
70271;SHT31;57680;54.292;18.598;2023-11-19T02:08:53;0.65;94.99
70271;SHT31;57680;54.292;18.598;2023-11-19T02:11:18;0.63;94.96
70271;SHT31;57680;54.292;18.598;2023-11-19T02:13:43;0.59;94.91
70271;SHT31;57680;54.292;18.598;2023-11-19T02:16:09;0.59;94.89
70271;SHT31;57680;54.292;18.598;2023-11-19T02:18:34;0.59;95.08
70271;SHT31;57680;54.292;18.598;2023-11-19T02:20:59;0.58;95.14
70271;SHT31;57680;54.292;18.598;2023-11-19T02:23:29;0.53;95.26
70271;SHT31;57680;54.292;18.598;2023-11-19T02:26:29;0.52;95.34
70271;SHT31;57680;54.292;18.598;2023-11-19T02:28:56;0.49;95.34
70271;SHT31;57680;54.292;18.598;2023-11-19T02:31:21;0.49;95.43
70271;SHT31;57680;54.292;18.598;2023-11-19T02:33:46;0.52;95.54
70271;SHT31;57680;54.292;18.598;2023-11-19T02:36:12;0.46;95.32
70271;SHT31;57680;54.292;18.598;2023-11-19T02:38:37;0.41;95.29
70271;SHT31;57680;54.292;18.598;2023-11-19T02:41:06;0.35;95.30
70271;SHT31;57680;54.292;18.598;2023-11-19T02:43:32;0.29;95.48
70271;SHT31;57680;54.292;18.598;2023-11-19T02:46:02;0.22;95.71
70271;SHT31;57680;54.292;18.598;2023-11-19T02:48:27;0.18;95.80
70271;SHT31;57680;54.292;18.598;2023-11-19T02:50:53;0.14;95.91
70271;SHT31;57680;54.292;18.598;2023-11-19T02:53:18;0.12;95.90
70271;SHT31;57680;54.292;18.598;2023-11-19T02:55:43;0.08;96.19
70271;SHT31;57680;54.292;18.598;2023-11-19T02:58:09;0.11;96.67
70271;SHT31;57680;54.292;18.598;2023-11-19T03:00:34;0.05;96.57
70271;SHT31;57680;54.292;18.598;2023-11-19T03:02:59;0.04;96.82
70271;SHT31;57680;54.292;18.598;2023-11-19T03:05:26;0.02;96.93
70271;SHT31;57680;54.292;18.598;2023-11-19T03:07:52;0.02;97.13
70271;SHT31;57680;54.292;18.598;2023-11-19T03:10:17;-0.02;97.05
70271;SHT31;57680;54.292;18.598;2023-11-19T03:12:44;-0.05;96.90
70271;SHT31;57680;54.292;18.598;2023-11-19T03:15:09;-0.09;97.04
70271;SHT31;57680;54.292;18.598;2023-11-19T03:17:38;-0.09;97.46
70271;SHT31;57680;54.292;18.598;2023-11-19T03:20:08;-0.09;97.31
70271;SHT31;57680;54.292;18.598;2023-11-19T03:22:34;-0.10;97.23
70271;SHT31;57680;54.292;18.598;2023-11-19T03:24:59;-0.10;97.43
70271;SHT31;57680;54.292;18.598;2023-11-19T03:27:25;-0.09;97.49
70271;SHT31;57680;54.292;18.598;2023-11-19T03:29:50;-0.14;97.69
70271;SHT31;57680;54.292;18.598;2023-11-19T03:32:15;-0.24;97.40
70271;SHT31;57680;54.292;18.598;2023-11-19T03:34:40;-0.24;97.76
70271;SHT31;57680;54.292;18.598;2023-11-19T03:37:06;-0.29;97.86
70271;SHT31;57680;54.292;18.598;2023-11-19T03:39:31;-0.26;97.99
70271;SHT31;57680;54.292;18.598;2023-11-19T03:41:56;-0.26;97.76
70271;SHT31;57680;54.292;18.598;2023-11-19T03:44:22;-0.29;97.59
70271;SHT31;57680;54.292;18.598;2023-11-19T03:46:47;-0.31;97.48
70271;SHT31;57680;54.292;18.598;2023-11-19T03:49:13;-0.31;97.31
70271;SHT31;57680;54.292;18.598;2023-11-19T03:51:38;-0.34;97.30
70271;SHT31;57680;54.292;18.598;2023-11-19T03:54:03;-0.36;97.34
70271;SHT31;57680;54.292;18.598;2023-11-19T03:56:29;-0.34;97.25
70271;SHT31;57680;54.292;18.598;2023-11-19T03:58:54;-0.34;97.24
70271;SHT31;57680;54.292;18.598;2023-11-19T04:03:54;-0.31;97.30
70271;SHT31;57680;54.292;18.598;2023-11-19T04:13:31;-0.26;96.78
70271;SHT31;57680;54.292;18.598;2023-11-19T04:15:57;-0.21;96.65
70271;SHT31;57680;54.292;18.598;2023-11-19T04:20:31;-0.24;96.54
70271;SHT31;57680;54.292;18.598;2023-11-19T04:22:57;-0.26;96.52
70271;SHT31;57680;54.292;18.598;2023-11-19T04:25:23;-0.24;96.51
70271;SHT31;57680;54.292;18.598;2023-11-19T04:27:49;-0.26;96.45
70271;SHT31;57680;54.292;18.598;2023-11-19T04:30:15;-0.24;96.40
70271;SHT31;57680;54.292;18.598;2023-11-19T04:43:39;-0.27;96.16
70271;SHT31;57680;54.292;18.598;2023-11-19T04:50:41;-0.24;96.21
70271;SHT31;57680;54.292;18.598;2023-11-19T04:53:06;-0.27;96.18
70271;SHT31;57680;54.292;18.598;2023-11-19T05:10:39;-0.36;96.17
70271;SHT31;57680;54.292;18.598;2023-11-19T05:13:04;-0.37;96.27
70271;SHT31;57680;54.292;18.598;2023-11-19T05:15:30;-0.38;96.45
70271;SHT31;57680;54.292;18.598;2023-11-19T05:17:55;-0.40;96.33
70271;SHT31;57680;54.292;18.598;2023-11-19T05:20:33;-0.41;96.32
70271;SHT31;57680;54.292;18.598;2023-11-19T05:34:09;-0.60;96.68
70271;SHT31;57680;54.292;18.598;2023-11-19T05:36:34;-0.65;96.71
70271;SHT31;57680;54.292;18.598;2023-11-19T05:41:13;-0.67;96.98
70271;SHT31;57680;54.292;18.598;2023-11-19T05:43:38;-0.70;97.11
70271;SHT31;57680;54.292;18.598;2023-11-19T05:46:04;-0.74;97.34
70271;SHT31;57680;54.292;18.598;2023-11-19T05:48:29;-0.75;97.38
70271;SHT31;57680;54.292;18.598;2023-11-19T05:50:55;-0.77;97.57
70271;SHT31;57680;54.292;18.598;2023-11-19T05:53:20;-0.81;97.57
70271;SHT31;57680;54.292;18.598;2023-11-19T05:55:45;-0.82;97.60
70271;SHT31;57680;54.292;18.598;2023-11-19T05:58:11;-0.87;97.66
70271;SHT31;57680;54.292;18.598;2023-11-19T06:00:36;-0.91;97.70
70271;SHT31;57680;54.292;18.598;2023-11-19T06:03:01;-0.93;97.78
70271;SHT31;57680;54.292;18.598;2023-11-19T06:05:27;-0.95;97.93
70271;SHT31;57680;54.292;18.598;2023-11-19T06:14:21;-0.96;98.27
70271;SHT31;57680;54.292;18.598;2023-11-19T06:16:46;-0.88;98.67
70271;SHT31;57680;54.292;18.598;2023-11-19T06:21:21;-0.81;98.55
70271;SHT31;57680;54.292;18.598;2023-11-19T06:23:46;-0.84;98.39
70271;SHT31;57680;54.292;18.598;2023-11-19T06:26:12;-0.84;98.10
70271;SHT31;57680;54.292;18.598;2023-11-19T06:34:31;-0.85;97.95
70271;SHT31;57680;54.292;18.598;2023-11-19T06:36:57;-0.85;97.95
70271;SHT31;57680;54.292;18.598;2023-11-19T06:41:31;-0.85;97.75
70271;SHT31;57680;54.292;18.598;2023-11-19T06:43:57;-0.82;97.76
70271;SHT31;57680;54.292;18.598;2023-11-19T06:46:22;-0.78;97.69
70271;SHT31;57680;54.292;18.598;2023-11-19T06:48:47;-0.72;97.93
70271;SHT31;57680;54.292;18.598;2023-11-19T06:51:13;-0.72;97.61
70271;SHT31;57680;54.292;18.598;2023-11-19T06:53:38;-0.68;97.56
70271;SHT31;57680;54.292;18.598;2023-11-19T06:56:04;-0.65;97.40
70271;SHT31;57680;54.292;18.598;2023-11-19T06:58:29;-0.64;97.37
70271;SHT31;57680;54.292;18.598;2023-11-19T07:00:54;-0.62;97.21
70271;SHT31;57680;54.292;18.598;2023-11-19T07:03:20;-0.58;97.34
70271;SHT31;57680;54.292;18.598;2023-11-19T07:05:45;-0.58;97.34
70271;SHT31;57680;54.292;18.598;2023-11-19T07:08:10;-0.57;97.21
70271;SHT31;57680;54.292;18.598;2023-11-19T07:10:36;-0.50;97.21
70271;SHT31;57680;54.292;18.598;2023-11-19T07:13:01;-0.47;97.26
70271;SHT31;57680;54.292;18.598;2023-11-19T07:15:26;-0.40;97.33
70271;SHT31;57680;54.292;18.598;2023-11-19T07:17:52;-0.37;97.26
70271;SHT31;57680;54.292;18.598;2023-11-19T07:20:17;-0.34;97.27
70271;SHT31;57680;54.292;18.598;2023-11-19T07:22:44;-0.27;97.05
70271;SHT31;57680;54.292;18.598;2023-11-19T07:25:09;-0.24;96.95
70271;SHT31;57680;54.292;18.598;2023-11-19T07:27:34;-0.19;96.89
70271;SHT31;57680;54.292;18.598;2023-11-19T07:30:00;-0.19;96.51
70271;SHT31;57680;54.292;18.598;2023-11-19T07:32:25;-0.13;96.59
70271;SHT31;57680;54.292;18.598;2023-11-19T07:34:50;-0.10;96.35
70271;SHT31;57680;54.292;18.598;2023-11-19T07:39:51;-0.06;96.26
70271;SHT31;57680;54.292;18.598;2023-11-19T07:42:16;0.00;95.96
70271;SHT31;57680;54.292;18.598;2023-11-19T07:44:42;0.04;95.73
70271;SHT31;57680;54.292;18.598;2023-11-19T07:47:08;0.08;95.73
70271;SHT31;57680;54.292;18.598;2023-11-19T07:49:33;0.12;95.59
70271;SHT31;57680;54.292;18.598;2023-11-19T07:51:58;0.21;95.50
70271;SHT31;57680;54.292;18.598;2023-11-19T07:54:23;0.25;95.18
70271;SHT31;57680;54.292;18.598;2023-11-19T07:56:49;0.31;94.84
70271;SHT31;57680;54.292;18.598;2023-11-19T07:59:14;0.31;94.43
70271;SHT31;57680;54.292;18.598;2023-11-19T08:01:39;0.33;94.13
70271;SHT31;57680;54.292;18.598;2023-11-19T08:04:05;0.41;94.38
70271;SHT31;57680;54.292;18.598;2023-11-19T08:06:30;0.52;94.45
70271;SHT31;57680;54.292;18.598;2023-11-19T08:08:55;0.52;93.49
70271;SHT31;57680;54.292;18.598;2023-11-19T08:11:21;0.59;93.71
70271;SHT31;57680;54.292;18.598;2023-11-19T08:13:46;0.60;93.40
70271;SHT31;57680;54.292;18.598;2023-11-19T08:16:11;0.63;93.15
70271;SHT31;57680;54.292;18.598;2023-11-19T08:18:37;0.70;93.27
70271;SHT31;57680;54.292;18.598;2023-11-19T08:21:02;0.65;92.31
70271;SHT31;57680;54.292;18.598;2023-11-19T08:23:28;0.75;93.53
70271;SHT31;57680;54.292;18.598;2023-11-19T08:25:53;0.84;93.39
70271;SHT31;57680;54.292;18.598;2023-11-19T08:28:18;0.90;93.04
70271;SHT31;57680;54.292;18.598;2023-11-19T08:30:44;0.96;92.96
70271;SHT31;57680;54.292;18.598;2023-11-19T08:33:09;0.90;92.67
70271;SHT31;57680;54.292;18.598;2023-11-19T08:35:35;0.90;92.85
70271;SHT31;57680;54.292;18.598;2023-11-19T08:38:00;0.90;92.72
70271;SHT31;57680;54.292;18.598;2023-11-19T08:40:25;0.91;92.92
70271;SHT31;57680;54.292;18.598;2023-11-19T08:42:51;0.89;92.62
70271;SHT31;57680;54.292;18.598;2023-11-19T08:45:16;0.86;92.88
70271;SHT31;57680;54.292;18.598;2023-11-19T08:47:42;0.89;92.81
70271;SHT31;57680;54.292;18.598;2023-11-19T08:50:07;0.96;93.26
70271;SHT31;57680;54.292;18.598;2023-11-19T08:52:32;1.03;92.81
70271;SHT31;57680;54.292;18.598;2023-11-19T08:54:58;1.05;92.54
70271;SHT31;57680;54.292;18.598;2023-11-19T08:57:23;1.04;91.48
70271;SHT31;57680;54.292;18.598;2023-11-19T08:59:48;1.07;92.03
70271;SHT31;57680;54.292;18.598;2023-11-19T09:02:14;1.13;91.99
70271;SHT31;57680;54.292;18.598;2023-11-19T09:04:39;1.16;91.88
70271;SHT31;57680;54.292;18.598;2023-11-19T09:07:04;1.14;91.58
70271;SHT31;57680;54.292;18.598;2023-11-19T09:09:30;1.16;91.88
70271;SHT31;57680;54.292;18.598;2023-11-19T09:11:55;1.10;91.35
70271;SHT31;57680;54.292;18.598;2023-11-19T09:14:21;1.11;91.58
70271;SHT31;57680;54.292;18.598;2023-11-19T09:16:46;1.04;90.46
70271;SHT31;57680;54.292;18.598;2023-11-19T09:19:11;1.05;90.69
70271;SHT31;57680;54.292;18.598;2023-11-19T09:21:37;1.07;91.10
70271;SHT31;57680;54.292;18.598;2023-11-19T09:24:02;1.08;91.21
70271;SHT31;57680;54.292;18.598;2023-11-19T09:26:28;1.05;91.24
70271;SHT31;57680;54.292;18.598;2023-11-19T09:28:53;1.05;90.75
70271;SHT31;57680;54.292;18.598;2023-11-19T09:31:19;1.10;91.07
70271;SHT31;57680;54.292;18.598;2023-11-19T09:33:45;1.13;90.82
70271;SHT31;57680;54.292;18.598;2023-11-19T09:36:12;1.16;90.96
70271;SHT31;57680;54.292;18.598;2023-11-19T09:38:37;1.21;90.64
70271;SHT31;57680;54.292;18.598;2023-11-19T09:41:06;1.21;90.30
70271;SHT31;57680;54.292;18.598;2023-11-19T09:43:31;1.24;90.31
70271;SHT31;57680;54.292;18.598;2023-11-19T09:45:58;1.28;90.39
70271;SHT31;57680;54.292;18.598;2023-11-19T09:48:27;1.31;90.61
70271;SHT31;57680;54.292;18.598;2023-11-19T09:50:52;1.26;90.06
70271;SHT31;57680;54.292;18.598;2023-11-19T09:53:18;1.20;90.28
70271;SHT31;57680;54.292;18.598;2023-11-19T09:55:44;1.17;90.00
70271;SHT31;57680;54.292;18.598;2023-11-19T09:58:12;1.13;90.41
70271;SHT31;57680;54.292;18.598;2023-11-19T10:00:38;1.21;90.59
70271;SHT31;57680;54.292;18.598;2023-11-19T10:03:07;1.27;90.25
70271;SHT31;57680;54.292;18.598;2023-11-19T10:05:34;1.24;90.00
70271;SHT31;57680;54.292;18.598;2023-11-19T10:08:01;1.24;90.26
70271;SHT31;57680;54.292;18.598;2023-11-19T10:10:26;1.24;89.95
70271;SHT31;57680;54.292;18.598;2023-11-19T10:12:52;1.27;90.27
70271;SHT31;57680;54.292;18.598;2023-11-19T10:15:21;1.26;89.92
70271;SHT31;57680;54.292;18.598;2023-11-19T10:17:47;1.21;89.74
70271;SHT31;57680;54.292;18.598;2023-11-19T10:20:12;1.21;90.18
70271;SHT31;57680;54.292;18.598;2023-11-19T10:22:37;1.21;89.90
70271;SHT31;57680;54.292;18.598;2023-11-19T10:25:03;1.21;90.04
70271;SHT31;57680;54.292;18.598;2023-11-19T10:27:28;1.23;90.08
70271;SHT31;57680;54.292;18.598;2023-11-19T10:29:54;1.28;90.30
70271;SHT31;57680;54.292;18.598;2023-11-19T10:32:19;1.28;89.77
70271;SHT31;57680;54.292;18.598;2023-11-19T10:34:44;1.27;89.90
70271;SHT31;57680;54.292;18.598;2023-11-19T10:37:27;1.32;90.77
70271;SHT31;57680;54.292;18.598;2023-11-19T10:39:54;1.32;90.22
70271;SHT31;57680;54.292;18.598;2023-11-19T10:42:19;1.35;89.72
70271;SHT31;57680;54.292;18.598;2023-11-19T10:44:45;1.41;89.92
70271;SHT31;57680;54.292;18.598;2023-11-19T10:47:10;1.41;89.20
70271;SHT31;57680;54.292;18.598;2023-11-19T10:49:36;1.40;89.58
70271;SHT31;57680;54.292;18.598;2023-11-19T10:52:02;1.35;89.15
70271;SHT31;57680;54.292;18.598;2023-11-19T10:54:30;1.31;89.28
70271;SHT31;57680;54.292;18.598;2023-11-19T10:56:59;1.37;89.16
70271;SHT31;57680;54.292;18.598;2023-11-19T10:59:27;1.47;89.46
70271;SHT31;57680;54.292;18.598;2023-11-19T11:01:54;1.51;89.36
70271;SHT31;57680;54.292;18.598;2023-11-19T11:04:23;1.48;89.23
70271;SHT31;57680;54.292;18.598;2023-11-19T11:06:49;1.44;89.09
70271;SHT31;57680;54.292;18.598;2023-11-19T11:09:16;1.51;89.69
70271;SHT31;57680;54.292;18.598;2023-11-19T11:11:46;1.52;89.76
70271;SHT31;57680;54.292;18.598;2023-11-19T11:14:12;1.54;89.83
70271;SHT31;57680;54.292;18.598;2023-11-19T11:16:42;1.59;89.60
70271;SHT31;57680;54.292;18.598;2023-11-19T11:19:09;1.62;90.38
70271;SHT31;57680;54.292;18.598;2023-11-19T11:21:36;1.68;90.33
70271;SHT31;57680;54.292;18.598;2023-11-19T11:24:28;1.68;90.41
70271;SHT31;57680;54.292;18.598;2023-11-19T11:27:02;1.66;89.93
70271;SHT31;57680;54.292;18.598;2023-11-19T11:30:03;1.62;90.08
70271;SHT31;57680;54.292;18.598;2023-11-19T11:32:48;1.59;89.82
70271;SHT31;57680;54.292;18.598;2023-11-19T11:37:46;1.55;90.59
70271;SHT31;57680;54.292;18.598;2023-11-19T11:40:16;1.55;90.55
70271;SHT31;57680;54.292;18.598;2023-11-19T11:42:42;1.56;90.48
70271;SHT31;57680;54.292;18.598;2023-11-19T11:45:09;1.54;90.16
70271;SHT31;57680;54.292;18.598;2023-11-19T11:50:09;1.59;91.07
70271;SHT31;57680;54.292;18.598;2023-11-19T11:55:34;1.52;91.03
70271;SHT31;57680;54.292;18.598;2023-11-19T11:58:00;1.50;91.31
70271;SHT31;57680;54.292;18.598;2023-11-19T12:00:38;1.38;91.49
70271;SHT31;57680;54.292;18.598;2023-11-19T12:03:05;1.35;91.95
70271;SHT31;57680;54.292;18.598;2023-11-19T12:05:31;1.38;92.03
70271;SHT31;57680;54.292;18.598;2023-11-19T12:08:00;1.35;92.29
70271;SHT31;57680;54.292;18.598;2023-11-19T12:10:26;1.31;92.23
70271;SHT31;57680;54.292;18.598;2023-11-19T12:12:58;1.32;92.76
70271;SHT31;57680;54.292;18.598;2023-11-19T12:15:24;1.35;92.90
70271;SHT31;57680;54.292;18.598;2023-11-19T12:17:50;1.34;92.88
70271;SHT31;57680;54.292;18.598;2023-11-19T12:20:16;1.37;92.89
70271;SHT31;57680;54.292;18.598;2023-11-19T12:22:43;1.38;93.59
70271;SHT31;57680;54.292;18.598;2023-11-19T12:25:10;1.42;93.76
70271;SHT31;57680;54.292;18.598;2023-11-19T12:27:36;1.50;93.76
70271;SHT31;57680;54.292;18.598;2023-11-19T12:30:05;1.40;93.32
70271;SHT31;57680;54.292;18.598;2023-11-19T12:32:40;1.30;93.72
70271;SHT31;57680;54.292;18.598;2023-11-19T12:35:06;1.20;93.73
70271;SHT31;57680;54.292;18.598;2023-11-19T12:37:32;1.08;93.91
70271;SHT31;57680;54.292;18.598;2023-11-19T12:39:57;1.03;94.46
70271;SHT31;57680;54.292;18.598;2023-11-19T12:42:35;1.03;95.00
70271;SHT31;57680;54.292;18.598;2023-11-19T12:45:00;1.05;95.40
70271;SHT31;57680;54.292;18.598;2023-11-19T12:47:26;1.11;95.73
70271;SHT31;57680;54.292;18.598;2023-11-19T12:49:57;1.17;95.50
70271;SHT31;57680;54.292;18.598;2023-11-19T12:52:23;1.17;94.95
70271;SHT31;57680;54.292;18.598;2023-11-19T12:54:49;1.13;95.19
70271;SHT31;57680;54.292;18.598;2023-11-19T12:57:14;1.13;95.69
70271;SHT31;57680;54.292;18.598;2023-11-19T12:59:39;1.11;95.86
70271;SHT31;57680;54.292;18.598;2023-11-19T13:02:05;1.08;95.82
70271;SHT31;57680;54.292;18.598;2023-11-19T13:04:31;1.01;96.35
70271;SHT31;57680;54.292;18.598;2023-11-19T13:06:57;1.03;96.52
70271;SHT31;57680;54.292;18.598;2023-11-19T13:09:27;1.01;96.61
70271;SHT31;57680;54.292;18.598;2023-11-19T13:11:53;1.00;96.73
70271;SHT31;57680;54.292;18.598;2023-11-19T13:14:19;0.99;97.11
70271;SHT31;57680;54.292;18.598;2023-11-19T13:16:45;0.94;96.96
70271;SHT31;57680;54.292;18.598;2023-11-19T13:19:10;0.94;96.93
70271;SHT31;57680;54.292;18.598;2023-11-19T13:21:35;0.96;97.36
70271;SHT31;57680;54.292;18.598;2023-11-19T13:24:01;0.90;97.39
70271;SHT31;57680;54.292;18.598;2023-11-19T13:26:26;0.87;97.90
70271;SHT31;57680;54.292;18.598;2023-11-19T13:28:51;0.87;97.78
70271;SHT31;57680;54.292;18.598;2023-11-19T13:31:17;0.89;97.82
70271;SHT31;57680;54.292;18.598;2023-11-19T13:33:42;0.86;97.81
70271;SHT31;57680;54.292;18.598;2023-11-19T13:36:08;0.81;97.84
70271;SHT31;57680;54.292;18.598;2023-11-19T13:38:34;0.81;97.88
70271;SHT31;57680;54.292;18.598;2023-11-19T13:40:59;0.81;98.26
70271;SHT31;57680;54.292;18.598;2023-11-19T13:43:24;0.79;98.36
70271;SHT31;57680;54.292;18.598;2023-11-19T13:45:50;0.72;98.43
70271;SHT31;57680;54.292;18.598;2023-11-19T13:48:15;0.68;98.87
70271;SHT31;57680;54.292;18.598;2023-11-19T13:50:40;0.70;99.10
70271;SHT31;57680;54.292;18.598;2023-11-19T13:53:06;0.72;99.34
70271;SHT31;57680;54.292;18.598;2023-11-19T13:55:31;0.77;99.11
70271;SHT31;57680;54.292;18.598;2023-11-19T13:57:56;0.84;99.99
70271;SHT31;57680;54.292;18.598;2023-11-19T14:00:21;0.80;99.29
70271;SHT31;57680;54.292;18.598;2023-11-19T14:02:47;0.84;99.55
70271;SHT31;57680;54.292;18.598;2023-11-19T14:05:14;0.79;98.89
70271;SHT31;57680;54.292;18.598;2023-11-19T14:07:40;0.79;98.85
70271;SHT31;57680;54.292;18.598;2023-11-19T14:10:06;0.73;99.11
70271;SHT31;57680;54.292;18.598;2023-11-19T14:12:32;0.76;99.75
70271;SHT31;57680;54.292;18.598;2023-11-19T14:14:58;0.76;99.41
70271;SHT31;57680;54.292;18.598;2023-11-19T14:17:23;0.84;99.71
70271;SHT31;57680;54.292;18.598;2023-11-19T14:19:49;0.80;99.17
70271;SHT31;57680;54.292;18.598;2023-11-19T14:22:14;0.79;98.93
70271;SHT31;57680;54.292;18.598;2023-11-19T14:24:39;0.73;99.30
70271;SHT31;57680;54.292;18.598;2023-11-19T14:27:05;0.68;99.29
70271;SHT31;57680;54.292;18.598;2023-11-19T14:29:30;0.70;99.67
70271;SHT31;57680;54.292;18.598;2023-11-19T14:31:55;0.70;99.44
70271;SHT31;57680;54.292;18.598;2023-11-19T14:34:21;0.68;99.36
70271;SHT31;57680;54.292;18.598;2023-11-19T14:36:46;0.75;99.58
70271;SHT31;57680;54.292;18.598;2023-11-19T14:58:03;0.58;99.99
70271;SHT31;57680;54.292;18.598;2023-11-19T15:00:28;0.58;99.99
70271;SHT31;57680;54.292;18.598;2023-11-19T15:02:54;0.56;99.99
70271;SHT31;57680;54.292;18.598;2023-11-19T15:05:19;0.55;99.99
70271;SHT31;57680;54.292;18.598;2023-11-19T15:07:44;0.50;99.99
70271;SHT31;57680;54.292;18.598;2023-11-19T15:10:10;0.50;99.99
70271;SHT31;57680;54.292;18.598;2023-11-19T15:12:39;0.45;99.99
70271;SHT31;57680;54.292;18.598;2023-11-19T15:15:06;0.41;99.99
70271;SHT31;57680;54.292;18.598;2023-11-19T15:17:32;0.37;99.99
70271;SHT31;57680;54.292;18.598;2023-11-19T15:19:57;0.33;99.99
70271;SHT31;57680;54.292;18.598;2023-11-19T15:22:23;0.32;99.99
70271;SHT31;57680;54.292;18.598;2023-11-19T15:24:48;0.32;99.99
70271;SHT31;57680;54.292;18.598;2023-11-19T15:27:13;0.33;99.99
70271;SHT31;57680;54.292;18.598;2023-11-19T15:29:39;0.35;99.99
70271;SHT31;57680;54.292;18.598;2023-11-19T15:32:05;0.32;99.99
70271;SHT31;57680;54.292;18.598;2023-11-19T15:34:30;0.31;99.99
70271;SHT31;57680;54.292;18.598;2023-11-19T15:36:56;0.35;99.99
70271;SHT31;57680;54.292;18.598;2023-11-19T15:39:21;0.28;99.99
70271;SHT31;57680;54.292;18.598;2023-11-19T15:41:46;0.29;99.99
70271;SHT31;57680;54.292;18.598;2023-11-19T15:44:12;0.28;99.99
70271;SHT31;57680;54.292;18.598;2023-11-19T15:46:40;0.28;99.99
70271;SHT31;57680;54.292;18.598;2023-11-19T15:49:05;0.33;99.99
70271;SHT31;57680;54.292;18.598;2023-11-19T15:51:31;0.50;99.99
70271;SHT31;57680;54.292;18.598;2023-11-19T15:53:56;0.32;99.99
70271;SHT31;57680;54.292;18.598;2023-11-19T15:56:21;0.31;99.99
70271;SHT31;57680;54.292;18.598;2023-11-19T15:58:47;0.31;99.99
70271;SHT31;57680;54.292;18.598;2023-11-19T16:01:12;0.28;99.99
70271;SHT31;57680;54.292;18.598;2023-11-19T16:03:37;0.31;99.99
70271;SHT31;57680;54.292;18.598;2023-11-19T16:06:02;0.37;99.99
70271;SHT31;57680;54.292;18.598;2023-11-19T16:08:28;0.41;99.99
70271;SHT31;57680;54.292;18.598;2023-11-19T16:10:53;0.35;99.99
70271;SHT31;57680;54.292;18.598;2023-11-19T16:13:18;0.33;99.99
70271;SHT31;57680;54.292;18.598;2023-11-19T16:15:44;0.38;99.99
70271;SHT31;57680;54.292;18.598;2023-11-19T16:18:09;0.38;99.99
70271;SHT31;57680;54.292;18.598;2023-11-19T16:20:35;0.42;99.95
70271;SHT31;57680;54.292;18.598;2023-11-19T16:23:00;0.42;99.93
70271;SHT31;57680;54.292;18.598;2023-11-19T16:25:27;0.37;99.99
70271;SHT31;57680;54.292;18.598;2023-11-19T16:27:52;0.37;99.99
70271;SHT31;57680;54.292;18.598;2023-11-19T16:30:17;0.38;99.99
70271;SHT31;57680;54.292;18.598;2023-11-19T16:32:56;0.37;99.99
70271;SHT31;57680;54.292;18.598;2023-11-19T16:35:21;0.33;99.99
70271;SHT31;57680;54.292;18.598;2023-11-19T16:37:47;0.38;99.99
70271;SHT31;57680;54.292;18.598;2023-11-19T16:40:12;0.39;99.99
70271;SHT31;57680;54.292;18.598;2023-11-19T16:42:38;0.46;99.61
70271;SHT31;57680;54.292;18.598;2023-11-19T16:45:07;0.45;99.94
70271;SHT31;57680;54.292;18.598;2023-11-19T16:47:32;0.41;99.99
70271;SHT31;57680;54.292;18.598;2023-11-19T16:49:58;0.42;99.99
70271;SHT31;57680;54.292;18.598;2023-11-19T16:52:23;0.37;99.99
70271;SHT31;57680;54.292;18.598;2023-11-19T16:54:49;0.45;99.84
70271;SHT31;57680;54.292;18.598;2023-11-19T16:57:14;0.41;99.93
70271;SHT31;57680;54.292;18.598;2023-11-19T16:59:39;0.42;99.99
70271;SHT31;57680;54.292;18.598;2023-11-19T17:02:05;0.42;99.99